sensor_id;sensor_type;location;lat;lon;timestamp;temperature;humidity
79467;SHT30;68933;49.726;9.226;2023-05-24T00:01:48;12.6;65
79467;SHT30;68933;49.726;9.226;2023-05-24T00:04:01;12.6;65
79467;SHT30;68933;49.726;9.226;2023-05-24T00:06:14;12.6;65
79467;SHT30;68933;49.726;9.226;2023-05-24T00:08:27;12.5;65
79467;SHT30;68933;49.726;9.226;2023-05-24T00:10:40;12.5;65
79467;SHT30;68933;49.726;9.226;2023-05-24T00:12:53;12.5;65
79467;SHT30;68933;49.726;9.226;2023-05-24T00:15:06;12.4;65
79467;SHT30;68933;49.726;9.226;2023-05-24T00:17:19;12.4;65
79467;SHT30;68933;49.726;9.226;2023-05-24T00:19:32;12.3;67
79467;SHT30;68933;49.726;9.226;2023-05-24T00:21:45;12.3;67
79467;SHT30;68933;49.726;9.226;2023-05-24T00:23:58;12.2;67
79467;SHT30;68933;49.726;9.226;2023-05-24T00:26:11;12.2;67
79467;SHT30;68933;49.726;9.226;2023-05-24T00:28:24;12.2;67
79467;SHT30;68933;49.726;9.226;2023-05-24T00:30:37;12.2;67
79467;SHT30;68933;49.726;9.226;2023-05-24T00:32:50;12.2;67
79467;SHT30;68933;49.726;9.226;2023-05-24T00:35:03;12.1;67
79467;SHT30;68933;49.726;9.226;2023-05-24T00:37:16;12.1;67
79467;SHT30;68933;49.726;9.226;2023-05-24T00:39:29;12.1;67
79467;SHT30;68933;49.726;9.226;2023-05-24T00:41:42;12.1;67
79467;SHT30;68933;49.726;9.226;2023-05-24T00:43:55;12.1;67
79467;SHT30;68933;49.726;9.226;2023-05-24T00:46:11;12.1;67
79467;SHT30;68933;49.726;9.226;2023-05-24T00:48:21;12;67
79467;SHT30;68933;49.726;9.226;2023-05-24T00:50:34;12;67
79467;SHT30;68933;49.726;9.226;2023-05-24T00:52:47;12;67
79467;SHT30;68933;49.726;9.226;2023-05-24T00:55:00;12;67
79467;SHT30;68933;49.726;9.226;2023-05-24T00:57:13;12;67
79467;SHT30;68933;49.726;9.226;2023-05-24T00:59:26;11.9;67
79467;SHT30;68933;49.726;9.226;2023-05-24T01:01:39;11.9;67
79467;SHT30;68933;49.726;9.226;2023-05-24T01:03:52;11.8;67
79467;SHT30;68933;49.726;9.226;2023-05-24T01:06:05;11.8;67
79467;SHT30;68933;49.726;9.226;2023-05-24T01:08:19;11.7;67
79467;SHT30;68933;49.726;9.226;2023-05-24T01:10:31;11.7;67
79467;SHT30;68933;49.726;9.226;2023-05-24T01:12:45;11.7;67
79467;SHT30;68933;49.726;9.226;2023-05-24T01:14:59;11.7;67
79467;SHT30;68933;49.726;9.226;2023-05-24T01:17:12;11.7;67
79467;SHT30;68933;49.726;9.226;2023-05-24T01:19:29;11.7;68
79467;SHT30;68933;49.726;9.226;2023-05-24T01:21:37;11.7;68
79467;SHT30;68933;49.726;9.226;2023-05-24T01:23:51;11.6;68
79467;SHT30;68933;49.726;9.226;2023-05-24T01:26:04;11.6;68
79467;SHT30;68933;49.726;9.226;2023-05-24T01:28:15;11.6;68
79467;SHT30;68933;49.726;9.226;2023-05-24T01:30:28;11.6;68
79467;SHT30;68933;49.726;9.226;2023-05-24T01:32:41;11.6;68
79467;SHT30;68933;49.726;9.226;2023-05-24T01:34:54;11.6;68
79467;SHT30;68933;49.726;9.226;2023-05-24T01:37:07;11.6;68
79467;SHT30;68933;49.726;9.226;2023-05-24T01:39:20;11.6;68
79467;SHT30;68933;49.726;9.226;2023-05-24T01:41:35;11.6;68
79467;SHT30;68933;49.726;9.226;2023-05-24T01:43:47;11.5;68
79467;SHT30;68933;49.726;9.226;2023-05-24T01:46:01;11.5;68
79467;SHT30;68933;49.726;9.226;2023-05-24T01:48:13;11.4;68
79467;SHT30;68933;49.726;9.226;2023-05-24T01:50:27;11.4;68
79467;SHT30;68933;49.726;9.226;2023-05-24T01:52:38;11.4;68
79467;SHT30;68933;49.726;9.226;2023-05-24T01:54:51;11.4;68
79467;SHT30;68933;49.726;9.226;2023-05-24T01:57:04;11.4;68
79467;SHT30;68933;49.726;9.226;2023-05-24T01:59:17;11.3;68
79467;SHT30;68933;49.726;9.226;2023-05-24T02:01:30;11.3;68
79467;SHT30;68933;49.726;9.226;2023-05-24T02:03:43;11.3;68
79467;SHT30;68933;49.726;9.226;2023-05-24T02:05:56;11.2;69
79467;SHT30;68933;49.726;9.226;2023-05-24T02:08:09;11.2;69
79467;SHT30;68933;49.726;9.226;2023-05-24T02:10:22;11.1;69
79467;SHT30;68933;49.726;9.226;2023-05-24T02:12:35;11.1;69
79467;SHT30;68933;49.726;9.226;2023-05-24T02:14:48;11.1;69
79467;SHT30;68933;49.726;9.226;2023-05-24T02:17:01;11.1;69
79467;SHT30;68933;49.726;9.226;2023-05-24T02:19:14;11.1;69
79467;SHT30;68933;49.726;9.226;2023-05-24T02:21:27;11.2;69
79467;SHT30;68933;49.726;9.226;2023-05-24T02:23:40;11.2;69
79467;SHT30;68933;49.726;9.226;2023-05-24T02:25:53;11.1;69
79467;SHT30;68933;49.726;9.226;2023-05-24T02:28:06;11.1;69
79467;SHT30;68933;49.726;9.226;2023-05-24T02:30:19;11.1;69
79467;SHT30;68933;49.726;9.226;2023-05-24T02:32:32;11;69
79467;SHT30;68933;49.726;9.226;2023-05-24T02:34:45;11;69
79467;SHT30;68933;49.726;9.226;2023-05-24T02:36:58;11;69
79467;SHT30;68933;49.726;9.226;2023-05-24T02:39:11;11;69
79467;SHT30;68933;49.726;9.226;2023-05-24T02:41:24;11;69
79467;SHT30;68933;49.726;9.226;2023-05-24T02:43:37;11;69
79467;SHT30;68933;49.726;9.226;2023-05-24T02:45:50;11;69
79467;SHT30;68933;49.726;9.226;2023-05-24T02:48:03;10.9;69
79467;SHT30;68933;49.726;9.226;2023-05-24T02:50:16;10.9;69
79467;SHT30;68933;49.726;9.226;2023-05-24T02:52:29;10.9;69
79467;SHT30;68933;49.726;9.226;2023-05-24T02:54:42;10.9;69
79467;SHT30;68933;49.726;9.226;2023-05-24T02:56:55;10.9;70
79467;SHT30;68933;49.726;9.226;2023-05-24T02:59:08;10.9;70
79467;SHT30;68933;49.726;9.226;2023-05-24T03:01:21;10.9;70
79467;SHT30;68933;49.726;9.226;2023-05-24T03:03:34;10.9;70
79467;SHT30;68933;49.726;9.226;2023-05-24T03:05:47;10.9;70
79467;SHT30;68933;49.726;9.226;2023-05-24T03:08:00;10.9;70
79467;SHT30;68933;49.726;9.226;2023-05-24T03:10:13;10.9;70
79467;SHT30;68933;49.726;9.226;2023-05-24T03:12:26;10.9;70
79467;SHT30;68933;49.726;9.226;2023-05-24T03:14:39;10.9;70
79467;SHT30;68933;49.726;9.226;2023-05-24T03:16:52;10.9;70
79467;SHT30;68933;49.726;9.226;2023-05-24T03:19:05;10.9;70
79467;SHT30;68933;49.726;9.226;2023-05-24T03:21:18;10.9;70
79467;SHT30;68933;49.726;9.226;2023-05-24T03:23:31;10.9;70
79467;SHT30;68933;49.726;9.226;2023-05-24T03:25:44;10.9;70
79467;SHT30;68933;49.726;9.226;2023-05-24T03:27:57;10.9;70
79467;SHT30;68933;49.726;9.226;2023-05-24T03:30:10;10.9;70
79467;SHT30;68933;49.726;9.226;2023-05-24T03:32:23;11;69
79467;SHT30;68933;49.726;9.226;2023-05-24T03:34:36;11;69
79467;SHT30;68933;49.726;9.226;2023-05-24T03:36:49;11;69
79467;SHT30;68933;49.726;9.226;2023-05-24T03:39:02;11;69
79467;SHT30;68933;49.726;9.226;2023-05-24T03:41:15;11;69
79467;SHT30;68933;49.726;9.226;2023-05-24T03:43:28;11.1;69
79467;SHT30;68933;49.726;9.226;2023-05-24T03:45:41;11.1;69
79467;SHT30;68933;49.726;9.226;2023-05-24T03:47:54;11.1;69
79467;SHT30;68933;49.726;9.226;2023-05-24T03:50:07;11.1;69
79467;SHT30;68933;49.726;9.226;2023-05-24T03:52:20;11.1;69
79467;SHT30;68933;49.726;9.226;2023-05-24T03:54:33;11.2;69
79467;SHT30;68933;49.726;9.226;2023-05-24T03:56:46;11.2;69
79467;SHT30;68933;49.726;9.226;2023-05-24T03:58:59;11.2;69
79467;SHT30;68933;49.726;9.226;2023-05-24T04:01:12;11.2;69
79467;SHT30;68933;49.726;9.226;2023-05-24T04:03:25;11.1;69
79467;SHT30;68933;49.726;9.226;2023-05-24T04:05:38;11.1;69
79467;SHT30;68933;49.726;9.226;2023-05-24T04:07:51;11.1;69
79467;SHT30;68933;49.726;9.226;2023-05-24T04:10:04;11.1;69
79467;SHT30;68933;49.726;9.226;2023-05-24T04:12:17;11.1;69
79467;SHT30;68933;49.726;9.226;2023-05-24T04:14:30;11.1;69
79467;SHT30;68933;49.726;9.226;2023-05-24T04:16:43;11.1;69
79467;SHT30;68933;49.726;9.226;2023-05-24T04:18:56;11.1;69
79467;SHT30;68933;49.726;9.226;2023-05-24T04:21:09;11.1;69
79467;SHT30;68933;49.726;9.226;2023-05-24T04:23:22;11;69
79467;SHT30;68933;49.726;9.226;2023-05-24T04:25:35;11;69
79467;SHT30;68933;49.726;9.226;2023-05-24T04:27:48;11.1;69
79467;SHT30;68933;49.726;9.226;2023-05-24T04:30:01;11.1;69
79467;SHT30;68933;49.726;9.226;2023-05-24T04:32:14;11.1;69
79467;SHT30;68933;49.726;9.226;2023-05-24T04:34:27;11.1;69
79467;SHT30;68933;49.726;9.226;2023-05-24T04:36:40;11.2;69
79467;SHT30;68933;49.726;9.226;2023-05-24T04:38:53;11.2;69
79467;SHT30;68933;49.726;9.226;2023-05-24T04:41:06;11.2;69
79467;SHT30;68933;49.726;9.226;2023-05-24T04:43:19;11.3;69
79467;SHT30;68933;49.726;9.226;2023-05-24T04:45:32;11.3;69
79467;SHT30;68933;49.726;9.226;2023-05-24T04:47:45;11.3;69
79467;SHT30;68933;49.726;9.226;2023-05-24T04:49:58;11.3;69
79467;SHT30;68933;49.726;9.226;2023-05-24T04:52:11;11.3;69
79467;SHT30;68933;49.726;9.226;2023-05-24T04:54:24;11.3;69
79467;SHT30;68933;49.726;9.226;2023-05-24T04:56:37;11.3;69
79467;SHT30;68933;49.726;9.226;2023-05-24T04:58:50;11.4;69
79467;SHT30;68933;49.726;9.226;2023-05-24T05:01:03;11.4;69
79467;SHT30;68933;49.726;9.226;2023-05-24T05:03:16;11.4;68
79467;SHT30;68933;49.726;9.226;2023-05-24T05:05:29;11.4;68
79467;SHT30;68933;49.726;9.226;2023-05-24T05:07:42;11.4;68
79467;SHT30;68933;49.726;9.226;2023-05-24T05:09:55;11.4;68
79467;SHT30;68933;49.726;9.226;2023-05-24T05:12:08;11.4;68
79467;SHT30;68933;49.726;9.226;2023-05-24T05:14:21;11.5;68
79467;SHT30;68933;49.726;9.226;2023-05-24T05:16:34;11.5;68
79467;SHT30;68933;49.726;9.226;2023-05-24T05:18:47;11.6;68
79467;SHT30;68933;49.726;9.226;2023-05-24T05:21:00;11.6;68
79467;SHT30;68933;49.726;9.226;2023-05-24T05:23:13;11.6;68
79467;SHT30;68933;49.726;9.226;2023-05-24T05:25:26;11.7;67
79467;SHT30;68933;49.726;9.226;2023-05-24T05:27:39;11.7;67
79467;SHT30;68933;49.726;9.226;2023-05-24T05:29:52;11.7;67
79467;SHT30;68933;49.726;9.226;2023-05-24T05:32:05;11.7;67
79467;SHT30;68933;49.726;9.226;2023-05-24T05:34:18;11.7;67
79467;SHT30;68933;49.726;9.226;2023-05-24T05:36:31;11.7;67
79467;SHT30;68933;49.726;9.226;2023-05-24T05:38:44;11.7;67
79467;SHT30;68933;49.726;9.226;2023-05-24T05:40:57;11.7;67
79467;SHT30;68933;49.726;9.226;2023-05-24T05:43:10;11.7;67
79467;SHT30;68933;49.726;9.226;2023-05-24T05:45:23;11.7;65
79467;SHT30;68933;49.726;9.226;2023-05-24T05:47:36;11.7;65
79467;SHT30;68933;49.726;9.226;2023-05-24T05:49:49;11.7;65
79467;SHT30;68933;49.726;9.226;2023-05-24T05:52:03;11.8;65
79467;SHT30;68933;49.726;9.226;2023-05-24T05:54:15;11.8;65
79467;SHT30;68933;49.726;9.226;2023-05-24T05:56:28;11.8;65
79467;SHT30;68933;49.726;9.226;2023-05-24T05:58:41;11.8;65
79467;SHT30;68933;49.726;9.226;2023-05-24T06:00:54;11.8;65
79467;SHT30;68933;49.726;9.226;2023-05-24T06:03:07;11.8;65
79467;SHT30;68933;49.726;9.226;2023-05-24T06:05:20;11.8;65
79467;SHT30;68933;49.726;9.226;2023-05-24T06:07:33;11.9;64
79467;SHT30;68933;49.726;9.226;2023-05-24T06:09:46;11.9;64
79467;SHT30;68933;49.726;9.226;2023-05-24T06:11:59;11.9;64
79467;SHT30;68933;49.726;9.226;2023-05-24T06:14:12;11.9;64
79467;SHT30;68933;49.726;9.226;2023-05-24T06:16:25;12.1;64
79467;SHT30;68933;49.726;9.226;2023-05-24T06:18:38;12.1;64
79467;SHT30;68933;49.726;9.226;2023-05-24T06:20:51;12.1;64
79467;SHT30;68933;49.726;9.226;2023-05-24T06:23:04;12.1;63
79467;SHT30;68933;49.726;9.226;2023-05-24T06:25:17;12.1;63
79467;SHT30;68933;49.726;9.226;2023-05-24T06:27:30;12.1;63
79467;SHT30;68933;49.726;9.226;2023-05-24T06:29:43;12.1;63
79467;SHT30;68933;49.726;9.226;2023-05-24T06:31:56;12.2;63
79467;SHT30;68933;49.726;9.226;2023-05-24T06:34:09;12.2;63
79467;SHT30;68933;49.726;9.226;2023-05-24T06:36:22;12.2;63
79467;SHT30;68933;49.726;9.226;2023-05-24T06:38:35;12.5;61
79467;SHT30;68933;49.726;9.226;2023-05-24T06:40:48;12.5;61
79467;SHT30;68933;49.726;9.226;2023-05-24T06:43:01;12.6;61
79467;SHT30;68933;49.726;9.226;2023-05-24T06:45:14;12.6;61
79467;SHT30;68933;49.726;9.226;2023-05-24T06:47:27;12.8;60
79467;SHT30;68933;49.726;9.226;2023-05-24T06:49:40;12.8;60
79467;SHT30;68933;49.726;9.226;2023-05-24T06:51:53;13;59
79467;SHT30;68933;49.726;9.226;2023-05-24T06:54:06;13;59
79467;SHT30;68933;49.726;9.226;2023-05-24T06:56:19;13;59
79467;SHT30;68933;49.726;9.226;2023-05-24T06:58:32;13;59
79467;SHT30;68933;49.726;9.226;2023-05-24T07:00:45;13;59
79467;SHT30;68933;49.726;9.226;2023-05-24T07:02:58;13.1;59
79467;SHT30;68933;49.726;9.226;2023-05-24T07:05:11;13.1;59
79467;SHT30;68933;49.726;9.226;2023-05-24T07:07:24;13.3;59
79467;SHT30;68933;49.726;9.226;2023-05-24T07:09:38;13.3;59
79467;SHT30;68933;49.726;9.226;2023-05-24T07:11:51;13.5;59
79467;SHT30;68933;49.726;9.226;2023-05-24T07:14:03;13.5;59
79467;SHT30;68933;49.726;9.226;2023-05-24T07:16:16;13.5;59
79467;SHT30;68933;49.726;9.226;2023-05-24T07:18:29;13.7;57
79467;SHT30;68933;49.726;9.226;2023-05-24T07:20:42;13.7;57
79467;SHT30;68933;49.726;9.226;2023-05-24T07:22:55;13.7;56
79467;SHT30;68933;49.726;9.226;2023-05-24T07:25:08;13.7;56
79467;SHT30;68933;49.726;9.226;2023-05-24T07:27:21;13.7;56
79467;SHT30;68933;49.726;9.226;2023-05-24T07:29:34;13.7;56
79467;SHT30;68933;49.726;9.226;2023-05-24T07:31:47;13.8;56
79467;SHT30;68933;49.726;9.226;2023-05-24T07:34:00;13.8;56
79467;SHT30;68933;49.726;9.226;2023-05-24T07:36:13;13.8;56
79467;SHT30;68933;49.726;9.226;2023-05-24T07:38:26;13.8;56
79467;SHT30;68933;49.726;9.226;2023-05-24T07:40:39;13.8;56
79467;SHT30;68933;49.726;9.226;2023-05-24T07:42:52;14;55
79467;SHT30;68933;49.726;9.226;2023-05-24T07:45:05;14;55
79467;SHT30;68933;49.726;9.226;2023-05-24T07:47:18;14.1;55
79467;SHT30;68933;49.726;9.226;2023-05-24T07:49:31;14.1;55
79467;SHT30;68933;49.726;9.226;2023-05-24T07:51:44;14.4;53
79467;SHT30;68933;49.726;9.226;2023-05-24T07:53:57;14.4;53
79467;SHT30;68933;49.726;9.226;2023-05-24T07:56:10;14.5;53
79467;SHT30;68933;49.726;9.226;2023-05-24T07:58:23;14.5;53
79467;SHT30;68933;49.726;9.226;2023-05-24T08:00:36;14.5;52
79467;SHT30;68933;49.726;9.226;2023-05-24T08:02:49;14.5;52
79467;SHT30;68933;49.726;9.226;2023-05-24T08:05:02;14.7;52
79467;SHT30;68933;49.726;9.226;2023-05-24T08:07:15;14.7;52
79467;SHT30;68933;49.726;9.226;2023-05-24T08:09:28;14.7;52
79467;SHT30;68933;49.726;9.226;2023-05-24T08:11:41;15.1;51
79467;SHT30;68933;49.726;9.226;2023-05-24T08:13:54;15.1;51
79467;SHT30;68933;49.726;9.226;2023-05-24T08:16:07;15.2;51
79467;SHT30;68933;49.726;9.226;2023-05-24T08:18:20;15.2;51
79467;SHT30;68933;49.726;9.226;2023-05-24T08:20:33;15.2;51
79467;SHT30;68933;49.726;9.226;2023-05-24T08:22:46;15.3;49
79467;SHT30;68933;49.726;9.226;2023-05-24T08:24:59;15.3;49
79467;SHT30;68933;49.726;9.226;2023-05-24T08:27:12;15.5;48
79467;SHT30;68933;49.726;9.226;2023-05-24T08:29:25;15.5;48
79467;SHT30;68933;49.726;9.226;2023-05-24T08:31:38;15.5;48
79467;SHT30;68933;49.726;9.226;2023-05-24T08:33:51;15.5;47
79467;SHT30;68933;49.726;9.226;2023-05-24T08:36:04;15.5;47
79467;SHT30;68933;49.726;9.226;2023-05-24T08:38:17;15.5;47
79467;SHT30;68933;49.726;9.226;2023-05-24T08:40:30;15.5;47
79467;SHT30;68933;49.726;9.226;2023-05-24T08:42:43;15.7;47
79467;SHT30;68933;49.726;9.226;2023-05-24T08:44:57;16;47
79467;SHT30;68933;49.726;9.226;2023-05-24T08:47:09;16;47
79467;SHT30;68933;49.726;9.226;2023-05-24T08:49:22;16.2;47
79467;SHT30;68933;49.726;9.226;2023-05-24T08:51:35;16.2;47
79467;SHT30;68933;49.726;9.226;2023-05-24T08:53:48;16.2;47
79467;SHT30;68933;49.726;9.226;2023-05-24T08:56:01;16.6;45
79467;SHT30;68933;49.726;9.226;2023-05-24T08:58:14;16.6;45
79467;SHT30;68933;49.726;9.226;2023-05-24T09:00:27;16.8;45
79467;SHT30;68933;49.726;9.226;2023-05-24T09:02:41;16.8;45
79467;SHT30;68933;49.726;9.226;2023-05-24T09:04:53;16.9;44
79467;SHT30;68933;49.726;9.226;2023-05-24T09:07:06;16.9;44
79467;SHT30;68933;49.726;9.226;2023-05-24T09:09:20;16.9;44
79467;SHT30;68933;49.726;9.226;2023-05-24T09:11:32;17.3;44
79467;SHT30;68933;49.726;9.226;2023-05-24T09:13:45;17.3;44
79467;SHT30;68933;49.726;9.226;2023-05-24T09:15:58;17.5;42
79467;SHT30;68933;49.726;9.226;2023-05-24T09:18:11;17.5;42
79467;SHT30;68933;49.726;9.226;2023-05-24T09:22:37;17.6;42
79467;SHT30;68933;49.726;9.226;2023-05-24T09:24:50;17.6;42
79467;SHT30;68933;49.726;9.226;2023-05-24T09:27:03;17.7;42
79467;SHT30;68933;49.726;9.226;2023-05-24T09:29:16;17.7;42
79467;SHT30;68933;49.726;9.226;2023-05-24T09:31:32;17.7;42
79467;SHT30;68933;49.726;9.226;2023-05-24T09:33:42;17.7;42
79467;SHT30;68933;49.726;9.226;2023-05-24T09:35:56;17.9;42
79467;SHT30;68933;49.726;9.226;2023-05-24T09:38:14;17.9;42
79467;SHT30;68933;49.726;9.226;2023-05-24T09:40:21;17.8;42
79467;SHT30;68933;49.726;9.226;2023-05-24T09:42:34;17.8;42
79467;SHT30;68933;49.726;9.226;2023-05-24T09:44:47;17.8;42
79467;SHT30;68933;49.726;9.226;2023-05-24T09:47:00;17.5;42
79467;SHT30;68933;49.726;9.226;2023-05-24T09:49:13;17.5;42
79467;SHT30;68933;49.726;9.226;2023-05-24T09:51:26;17.2;42
79467;SHT30;68933;49.726;9.226;2023-05-24T09:53:40;17.2;42
79467;SHT30;68933;49.726;9.226;2023-05-24T09:55:52;17.2;43
79467;SHT30;68933;49.726;9.226;2023-05-24T09:58:06;17.2;43
79467;SHT30;68933;49.726;9.226;2023-05-24T10:00:20;17.2;43
79467;SHT30;68933;49.726;9.226;2023-05-24T10:02:31;17.2;44
79467;SHT30;68933;49.726;9.226;2023-05-24T10:04:44;17.2;44
79467;SHT30;68933;49.726;9.226;2023-05-24T10:06:57;17.2;43
79467;SHT30;68933;49.726;9.226;2023-05-24T10:09:10;17.2;43
79467;SHT30;68933;49.726;9.226;2023-05-24T10:11:23;17.4;42
79467;SHT30;68933;49.726;9.226;2023-05-24T10:13:36;17.4;42
79467;SHT30;68933;49.726;9.226;2023-05-24T10:15:49;17.7;42
79467;SHT30;68933;49.726;9.226;2023-05-24T10:18:02;17.7;42
79467;SHT30;68933;49.726;9.226;2023-05-24T10:20:15;17.9;42
79467;SHT30;68933;49.726;9.226;2023-05-24T10:22:28;17.9;42
79467;SHT30;68933;49.726;9.226;2023-05-24T10:24:43;18;42
79467;SHT30;68933;49.726;9.226;2023-05-24T10:26:54;18;42
79467;SHT30;68933;49.726;9.226;2023-05-24T10:29:08;18;42
79467;SHT30;68933;49.726;9.226;2023-05-24T10:31:21;18;42
79467;SHT30;68933;49.726;9.226;2023-05-24T10:33:33;18;42
79467;SHT30;68933;49.726;9.226;2023-05-24T10:35:46;18;42
79467;SHT30;68933;49.726;9.226;2023-05-24T10:37:59;18;42
79467;SHT30;68933;49.726;9.226;2023-05-24T10:40:15;18.3;42
79467;SHT30;68933;49.726;9.226;2023-05-24T10:42:25;18.3;42
79467;SHT30;68933;49.726;9.226;2023-05-24T10:44:38;18.8;41
79467;SHT30;68933;49.726;9.226;2023-05-24T10:47:24;18.8;41
79467;SHT30;68933;49.726;9.226;2023-05-24T10:49:04;18.8;41
79467;SHT30;68933;49.726;9.226;2023-05-24T10:51:33;19;40
79467;SHT30;68933;49.726;9.226;2023-05-24T10:53:30;19;40
79467;SHT30;68933;49.726;9.226;2023-05-24T10:55:50;19;40
79467;SHT30;68933;49.726;9.226;2023-05-24T10:57:56;19;40
79467;SHT30;68933;49.726;9.226;2023-05-24T11:00:25;19;40
79467;SHT30;68933;49.726;9.226;2023-05-24T11:02:22;19.3;40
79467;SHT30;68933;49.726;9.226;2023-05-24T11:04:36;19.3;40
79467;SHT30;68933;49.726;9.226;2023-05-24T11:06:48;19.5;40
79467;SHT30;68933;49.726;9.226;2023-05-24T11:09:01;19.5;40
79467;SHT30;68933;49.726;9.226;2023-05-24T11:11:14;20;38
79467;SHT30;68933;49.726;9.226;2023-05-24T11:13:27;20;38
79467;SHT30;68933;49.726;9.226;2023-05-24T11:15:47;20;38
79467;SHT30;68933;49.726;9.226;2023-05-24T11:18:22;20.3;38
79467;SHT30;68933;49.726;9.226;2023-05-24T11:20:06;20.3;38
79467;SHT30;68933;49.726;9.226;2023-05-24T11:22:19;20.4;38
79467;SHT30;68933;49.726;9.226;2023-05-24T11:24:32;20.4;38
79467;SHT30;68933;49.726;9.226;2023-05-24T11:26:45;20.6;37
79467;SHT30;68933;49.726;9.226;2023-05-24T11:28:58;20.6;37
79467;SHT30;68933;49.726;9.226;2023-05-24T11:31:11;20.6;37
79467;SHT30;68933;49.726;9.226;2023-05-24T11:33:24;21.2;37
79467;SHT30;68933;49.726;9.226;2023-05-24T11:35:37;21.2;37
79467;SHT30;68933;49.726;9.226;2023-05-24T11:37:50;21.3;36
79467;SHT30;68933;49.726;9.226;2023-05-24T11:40:03;21.3;36
79467;SHT30;68933;49.726;9.226;2023-05-24T11:42:16;21.6;36
79467;SHT30;68933;49.726;9.226;2023-05-24T11:44:30;21.6;36
79467;SHT30;68933;49.726;9.226;2023-05-24T11:46:42;21.6;36
79467;SHT30;68933;49.726;9.226;2023-05-24T11:48:55;21.7;34
79467;SHT30;68933;49.726;9.226;2023-05-24T11:51:08;21.7;34
79467;SHT30;68933;49.726;9.226;2023-05-24T11:53:21;21.8;33
79467;SHT30;68933;49.726;9.226;2023-05-24T11:55:34;21.8;33
79467;SHT30;68933;49.726;9.226;2023-05-24T11:57:48;21.8;33
79467;SHT30;68933;49.726;9.226;2023-05-24T12:00:00;21.8;33
79467;SHT30;68933;49.726;9.226;2023-05-24T12:02:13;22.1;33
79467;SHT30;68933;49.726;9.226;2023-05-24T12:04:26;22.1;33
79467;SHT30;68933;49.726;9.226;2023-05-24T12:06:40;22.6;32
79467;SHT30;68933;49.726;9.226;2023-05-24T12:08:52;22.6;32
79467;SHT30;68933;49.726;9.226;2023-05-24T12:11:05;22.6;32
79467;SHT30;68933;49.726;9.226;2023-05-24T12:13:19;22.7;32
79467;SHT30;68933;49.726;9.226;2023-05-24T12:15:31;22.7;32
79467;SHT30;68933;49.726;9.226;2023-05-24T12:17:46;22.8;32
79467;SHT30;68933;49.726;9.226;2023-05-24T12:19:57;22.8;32
79467;SHT30;68933;49.726;9.226;2023-05-24T12:22:10;22.9;30
79467;SHT30;68933;49.726;9.226;2023-05-24T12:24:23;22.9;30
79467;SHT30;68933;49.726;9.226;2023-05-24T12:26:36;22.9;30
79467;SHT30;68933;49.726;9.226;2023-05-24T12:28:51;23;30
79467;SHT30;68933;49.726;9.226;2023-05-24T12:31:02;23;30
79467;SHT30;68933;49.726;9.226;2023-05-24T12:33:17;23.2;30
79467;SHT30;68933;49.726;9.226;2023-05-24T12:35:28;23.2;30
79467;SHT30;68933;49.726;9.226;2023-05-24T12:37:41;23.1;30
79467;SHT30;68933;49.726;9.226;2023-05-24T12:39:54;23.1;30
79467;SHT30;68933;49.726;9.226;2023-05-24T12:42:07;23.3;30
79467;SHT30;68933;49.726;9.226;2023-05-24T12:44:21;23.3;30
79467;SHT30;68933;49.726;9.226;2023-05-24T12:46:33;23;30
79467;SHT30;68933;49.726;9.226;2023-05-24T12:48:46;23;30
79467;SHT30;68933;49.726;9.226;2023-05-24T12:50:59;22.9;30
79467;SHT30;68933;49.726;9.226;2023-05-24T12:53:12;22.9;30
79467;SHT30;68933;49.726;9.226;2023-05-24T12:55:25;22.9;30
79467;SHT30;68933;49.726;9.226;2023-05-24T12:57:38;23;30
79467;SHT30;68933;49.726;9.226;2023-05-24T12:59:51;23;30
79467;SHT30;68933;49.726;9.226;2023-05-24T13:02:04;23.1;30
79467;SHT30;68933;49.726;9.226;2023-05-24T13:04:17;23.1;30
79467;SHT30;68933;49.726;9.226;2023-05-24T13:06:30;23.3;30
79467;SHT30;68933;49.726;9.226;2023-05-24T13:08:43;23.3;30
79467;SHT30;68933;49.726;9.226;2023-05-24T13:10:56;23.4;30
79467;SHT30;68933;49.726;9.226;2023-05-24T13:13:09;23.4;30
79467;SHT30;68933;49.726;9.226;2023-05-24T13:15:22;23.4;30
79467;SHT30;68933;49.726;9.226;2023-05-24T13:17:35;23.7;29
79467;SHT30;68933;49.726;9.226;2023-05-24T13:19:48;23.7;29
79467;SHT30;68933;49.726;9.226;2023-05-24T13:22:01;23.9;29
79467;SHT30;68933;49.726;9.226;2023-05-24T13:24:14;23.9;29
79467;SHT30;68933;49.726;9.226;2023-05-24T13:26:27;23.9;29
79467;SHT30;68933;49.726;9.226;2023-05-24T13:28:40;23.9;29
79467;SHT30;68933;49.726;9.226;2023-05-24T13:30:53;23.9;29
79467;SHT30;68933;49.726;9.226;2023-05-24T13:33:06;24.3;29
79467;SHT30;68933;49.726;9.226;2023-05-24T13:35:19;24.3;29
79467;SHT30;68933;49.726;9.226;2023-05-24T13:37:32;24.3;29
79467;SHT30;68933;49.726;9.226;2023-05-24T13:39:45;24.4;29
79467;SHT30;68933;49.726;9.226;2023-05-24T13:41:58;24.4;29
79467;SHT30;68933;49.726;9.226;2023-05-24T13:44:11;24.5;28
79467;SHT30;68933;49.726;9.226;2023-05-24T13:46:24;24.5;28
79467;SHT30;68933;49.726;9.226;2023-05-24T13:48:37;24.7;28
79467;SHT30;68933;49.726;9.226;2023-05-24T13:50:50;24.7;28
79467;SHT30;68933;49.726;9.226;2023-05-24T13:53:03;24.7;28
79467;SHT30;68933;49.726;9.226;2023-05-24T13:55:16;24.7;28
79467;SHT30;68933;49.726;9.226;2023-05-24T13:57:29;24.7;28
79467;SHT30;68933;49.726;9.226;2023-05-24T13:59:42;24.9;28
79467;SHT30;68933;49.726;9.226;2023-05-24T14:01:55;24.9;28
79467;SHT30;68933;49.726;9.226;2023-05-24T14:04:08;24.9;28
79467;SHT30;68933;49.726;9.226;2023-05-24T14:06:21;25;28
79467;SHT30;68933;49.726;9.226;2023-05-24T14:08:34;25;28
79467;SHT30;68933;49.726;9.226;2023-05-24T14:10:47;25.1;26
79467;SHT30;68933;49.726;9.226;2023-05-24T14:13:00;25.1;26
79467;SHT30;68933;49.726;9.226;2023-05-24T14:13:23;13;65
79467;SHT30;68933;49.726;9.226;2023-05-24T14:14:37;13;65
79467;SHT30;68933;49.726;9.226;2023-05-24T14:16:41;13;65
79467;SHT30;68933;49.726;9.226;2023-05-24T14:18:53;13;65
79467;SHT30;68933;49.726;9.226;2023-05-24T14:20:45;13;65
79467;SHT30;68933;49.726;9.226;2023-05-24T14:21:37;13;65
79467;SHT30;68933;49.726;9.226;2023-05-24T14:22:28;13;65
79467;SHT30;68933;49.726;9.226;2023-05-24T14:23:18;13;65
79467;SHT30;68933;49.726;9.226;2023-05-24T14:25:30;13;65
79467;SHT30;68933;49.726;9.226;2023-05-24T14:27:43;13;65
79467;SHT30;68933;49.726;9.226;2023-05-24T14:29:56;13;65
79467;SHT30;68933;49.726;9.226;2023-05-24T14:32:09;13;65
79467;SHT30;68933;49.726;9.226;2023-05-24T14:34:23;13;65
79467;SHT30;68933;49.726;9.226;2023-05-24T14:36:36;24.7;28
79467;SHT30;68933;49.726;9.226;2023-05-24T14:38:49;24.7;28
79467;SHT30;68933;49.726;9.226;2023-05-24T14:41:02;24.4;28
79467;SHT30;68933;49.726;9.226;2023-05-24T14:43:15;24.4;28
79467;SHT30;68933;49.726;9.226;2023-05-24T14:45:28;24.4;28
79467;SHT30;68933;49.726;9.226;2023-05-24T14:47:41;24.1;29
79467;SHT30;68933;49.726;9.226;2023-05-24T14:49:54;24.1;29
79467;SHT30;68933;49.726;9.226;2023-05-24T14:52:07;23.7;29
79467;SHT30;68933;49.726;9.226;2023-05-24T14:54:21;23.7;29
79467;SHT30;68933;49.726;9.226;2023-05-24T14:56:34;23.5;29